sensor_id;sensor_type;location;lat;lon;timestamp;P1;durP1;ratioP1;P2;durP2;ratioP2
31990;SDS011;18508;49.386;8.370;2023-05-10T00:01:43;3.30;;;1.60;;
31990;SDS011;18508;49.386;8.370;2023-05-10T00:04:11;3.22;;;1.75;;
31990;SDS011;18508;49.386;8.370;2023-05-10T00:06:40;4.60;;;1.65;;
31990;SDS011;18508;49.386;8.370;2023-05-10T00:09:08;3.05;;;1.83;;
31990;SDS011;18508;49.386;8.370;2023-05-10T00:11:36;2.58;;;1.60;;
31990;SDS011;18508;49.386;8.370;2023-05-10T00:14:05;3.60;;;1.70;;
31990;SDS011;18508;49.386;8.370;2023-05-10T00:16:34;2.97;;;1.63;;
31990;SDS011;18508;49.386;8.370;2023-05-10T00:19:02;3.90;;;1.58;;
31990;SDS011;18508;49.386;8.370;2023-05-10T00:21:30;3.53;;;1.98;;
31990;SDS011;18508;49.386;8.370;2023-05-10T00:23:59;3.10;;;1.60;;
31990;SDS011;18508;49.386;8.370;2023-05-10T00:26:27;2.67;;;1.50;;
31990;SDS011;18508;49.386;8.370;2023-05-10T00:28:56;2.50;;;1.60;;
31990;SDS011;18508;49.386;8.370;2023-05-10T00:31:28;2.65;;;1.67;;
31990;SDS011;18508;49.386;8.370;2023-05-10T00:33:56;2.80;;;1.50;;
31990;SDS011;18508;49.386;8.370;2023-05-10T00:36:24;3.45;;;1.58;;
31990;SDS011;18508;49.386;8.370;2023-05-10T00:38:54;2.63;;;1.40;;
31990;SDS011;18508;49.386;8.370;2023-05-10T00:41:22;2.05;;;1.08;;
31990;SDS011;18508;49.386;8.370;2023-05-10T00:43:50;3.85;;;1.48;;
31990;SDS011;18508;49.386;8.370;2023-05-10T00:46:18;3.63;;;1.90;;
31990;SDS011;18508;49.386;8.370;2023-05-10T00:48:49;3.30;;;1.80;;
31990;SDS011;18508;49.386;8.370;2023-05-10T00:51:17;2.55;;;1.27;;
31990;SDS011;18508;49.386;8.370;2023-05-10T00:53:46;2.20;;;1.25;;
31990;SDS011;18508;49.386;8.370;2023-05-10T00:56:14;1.75;;;1.10;;
31990;SDS011;18508;49.386;8.370;2023-05-10T00:58:43;4.63;;;1.40;;
31990;SDS011;18508;49.386;8.370;2023-05-10T01:01:11;2.10;;;1.20;;
31990;SDS011;18508;49.386;8.370;2023-05-10T01:03:39;5.82;;;1.40;;
31990;SDS011;18508;49.386;8.370;2023-05-10T01:06:10;2.38;;;1.40;;
31990;SDS011;18508;49.386;8.370;2023-05-10T01:08:38;4.35;;;1.23;;
31990;SDS011;18508;49.386;8.370;2023-05-10T01:11:07;3.22;;;1.50;;
31990;SDS011;18508;49.386;8.370;2023-05-10T01:13:36;4.13;;;1.60;;
31990;SDS011;18508;49.386;8.370;2023-05-10T01:16:06;3.20;;;1.13;;
31990;SDS011;18508;49.386;8.370;2023-05-10T01:18:35;3.88;;;1.42;;
31990;SDS011;18508;49.386;8.370;2023-05-10T01:21:11;1.80;;;1.05;;
31990;SDS011;18508;49.386;8.370;2023-05-10T01:23:54;2.30;;;1.23;;
31990;SDS011;18508;49.386;8.370;2023-05-10T01:26:55;2.60;;;1.42;;
31990;SDS011;18508;49.386;8.370;2023-05-10T01:32:54;1.98;;;1.40;;
31990;SDS011;18508;49.386;8.370;2023-05-10T01:35:30;2.20;;;1.50;;
31990;SDS011;18508;49.386;8.370;2023-05-10T01:38:12;2.60;;;1.55;;
31990;SDS011;18508;49.386;8.370;2023-05-10T01:40:47;2.47;;;1.23;;
31990;SDS011;18508;49.386;8.370;2023-05-10T01:43:24;2.47;;;1.38;;
31990;SDS011;18508;49.386;8.370;2023-05-10T01:45:59;3.92;;;1.63;;
31990;SDS011;18508;49.386;8.370;2023-05-10T01:48:38;3.42;;;1.30;;
31990;SDS011;18508;49.386;8.370;2023-05-10T01:51:13;3.03;;;1.30;;
31990;SDS011;18508;49.386;8.370;2023-05-10T01:53:44;2.25;;;1.50;;
31990;SDS011;18508;49.386;8.370;2023-05-10T01:56:15;1.95;;;1.20;;
31990;SDS011;18508;49.386;8.370;2023-05-10T01:58:47;3.73;;;1.50;;
31990;SDS011;18508;49.386;8.370;2023-05-10T02:01:17;2.08;;;1.30;;
31990;SDS011;18508;49.386;8.370;2023-05-10T02:03:49;2.10;;;1.45;;
31990;SDS011;18508;49.386;8.370;2023-05-10T02:06:18;5.32;;;1.60;;
31990;SDS011;18508;49.386;8.370;2023-05-10T02:08:49;5.32;;;1.92;;
31990;SDS011;18508;49.386;8.370;2023-05-10T02:11:20;3.50;;;1.83;;
31990;SDS011;18508;49.386;8.370;2023-05-10T02:13:49;5.95;;;2.03;;
31990;SDS011;18508;49.386;8.370;2023-05-10T02:16:19;4.97;;;1.80;;
31990;SDS011;18508;49.386;8.370;2023-05-10T02:18:53;4.90;;;2.00;;
31990;SDS011;18508;49.386;8.370;2023-05-10T02:21:21;3.50;;;2.03;;
31990;SDS011;18508;49.386;8.370;2023-05-10T02:23:50;3.53;;;2.08;;
31990;SDS011;18508;49.386;8.370;2023-05-10T02:26:21;13.40;;;2.75;;
31990;SDS011;18508;49.386;8.370;2023-05-10T02:28:51;5.18;;;2.38;;
31990;SDS011;18508;49.386;8.370;2023-05-10T02:31:20;5.63;;;2.25;;
31990;SDS011;18508;49.386;8.370;2023-05-10T02:33:50;7.05;;;2.95;;
31990;SDS011;18508;49.386;8.370;2023-05-10T02:36:20;6.53;;;2.40;;
31990;SDS011;18508;49.386;8.370;2023-05-10T02:38:49;12.85;;;3.42;;
31990;SDS011;18508;49.386;8.370;2023-05-10T02:41:19;6.72;;;2.65;;
31990;SDS011;18508;49.386;8.370;2023-05-10T02:43:50;4.00;;;2.30;;
31990;SDS011;18508;49.386;8.370;2023-05-10T02:46:19;5.35;;;2.45;;
31990;SDS011;18508;49.386;8.370;2023-05-10T02:48:47;4.88;;;2.03;;
31990;SDS011;18508;49.386;8.370;2023-05-10T02:51:17;3.45;;;2.22;;
31990;SDS011;18508;49.386;8.370;2023-05-10T02:53:47;3.45;;;2.22;;
31990;SDS011;18508;49.386;8.370;2023-05-10T02:56:20;4.88;;;1.98;;
31990;SDS011;18508;49.386;8.370;2023-05-10T02:58:52;4.05;;;2.35;;
31990;SDS011;18508;49.386;8.370;2023-05-10T03:01:21;5.35;;;2.35;;
31990;SDS011;18508;49.386;8.370;2023-05-10T03:03:49;3.03;;;1.50;;
31990;SDS011;18508;49.386;8.370;2023-05-10T03:06:19;3.80;;;2.30;;
31990;SDS011;18508;49.386;8.370;2023-05-10T03:08:47;4.65;;;2.03;;
31990;SDS011;18508;49.386;8.370;2023-05-10T03:11:17;3.10;;;1.88;;
31990;SDS011;18508;49.386;8.370;2023-05-10T03:14:08;3.10;;;1.90;;
31990;SDS011;18508;49.386;8.370;2023-05-10T03:16:41;4.75;;;1.95;;
31990;SDS011;18508;49.386;8.370;2023-05-10T03:19:16;3.33;;;1.70;;
31990;SDS011;18508;49.386;8.370;2023-05-10T03:21:51;6.72;;;2.30;;
31990;SDS011;18508;49.386;8.370;2023-05-10T03:24:21;4.70;;;2.00;;
31990;SDS011;18508;49.386;8.370;2023-05-10T03:26:52;3.80;;;1.85;;
31990;SDS011;18508;49.386;8.370;2023-05-10T03:29:23;3.65;;;2.03;;
31990;SDS011;18508;49.386;8.370;2023-05-10T03:31:53;4.85;;;1.80;;
31990;SDS011;18508;49.386;8.370;2023-05-10T03:34:23;6.22;;;3.20;;
31990;SDS011;18508;49.386;8.370;2023-05-10T03:36:53;3.55;;;2.47;;
31990;SDS011;18508;49.386;8.370;2023-05-10T03:39:21;7.03;;;3.33;;
31990;SDS011;18508;49.386;8.370;2023-05-10T03:41:51;4.15;;;2.42;;
31990;SDS011;18508;49.386;8.370;2023-05-10T03:44:19;5.05;;;3.00;;
31990;SDS011;18508;49.386;8.370;2023-05-10T03:46:47;4.65;;;3.20;;
31990;SDS011;18508;49.386;8.370;2023-05-10T03:49:15;4.82;;;2.72;;
31990;SDS011;18508;49.386;8.370;2023-05-10T03:51:43;4.75;;;2.88;;
31990;SDS011;18508;49.386;8.370;2023-05-10T03:54:13;4.50;;;2.80;;
31990;SDS011;18508;49.386;8.370;2023-05-10T03:56:41;4.38;;;2.60;;
31990;SDS011;18508;49.386;8.370;2023-05-10T03:59:10;4.85;;;2.72;;
31990;SDS011;18508;49.386;8.370;2023-05-10T04:01:38;3.72;;;2.47;;
31990;SDS011;18508;49.386;8.370;2023-05-10T04:04:06;5.65;;;3.50;;
31990;SDS011;18508;49.386;8.370;2023-05-10T04:06:35;6.07;;;3.30;;
31990;SDS011;18508;49.386;8.370;2023-05-10T04:09:03;4.78;;;3.17;;
31990;SDS011;18508;49.386;8.370;2023-05-10T04:11:33;4.20;;;2.90;;
31990;SDS011;18508;49.386;8.370;2023-05-10T04:14:01;5.95;;;3.08;;
31990;SDS011;18508;49.386;8.370;2023-05-10T04:16:30;5.20;;;3.00;;
31990;SDS011;18508;49.386;8.370;2023-05-10T04:18:59;5.18;;;2.80;;
31990;SDS011;18508;49.386;8.370;2023-05-10T04:21:27;4.65;;;2.60;;
31990;SDS011;18508;49.386;8.370;2023-05-10T04:23:55;7.22;;;3.30;;
31990;SDS011;18508;49.386;8.370;2023-05-10T04:26:23;5.05;;;3.20;;
31990;SDS011;18508;49.386;8.370;2023-05-10T04:28:53;4.80;;;3.13;;
31990;SDS011;18508;49.386;8.370;2023-05-10T04:31:21;4.95;;;3.03;;
31990;SDS011;18508;49.386;8.370;2023-05-10T04:33:49;5.82;;;3.40;;
31990;SDS011;18508;49.386;8.370;2023-05-10T04:36:17;4.80;;;3.33;;
31990;SDS011;18508;49.386;8.370;2023-05-10T04:38:46;7.38;;;3.53;;
31990;SDS011;18508;49.386;8.370;2023-05-10T04:41:14;5.13;;;3.58;;
31990;SDS011;18508;49.386;8.370;2023-05-10T04:43:42;5.53;;;3.33;;
31990;SDS011;18508;49.386;8.370;2023-05-10T04:46:12;7.85;;;3.80;;
31990;SDS011;18508;49.386;8.370;2023-05-10T04:48:40;5.53;;;3.80;;
31990;SDS011;18508;49.386;8.370;2023-05-10T04:51:08;5.55;;;4.13;;
31990;SDS011;18508;49.386;8.370;2023-05-10T04:53:36;6.88;;;3.95;;
31990;SDS011;18508;49.386;8.370;2023-05-10T04:56:04;6.53;;;4.07;;
31990;SDS011;18508;49.386;8.370;2023-05-10T04:58:33;5.32;;;3.83;;
31990;SDS011;18508;49.386;8.370;2023-05-10T05:01:05;7.75;;;4.10;;
31990;SDS011;18508;49.386;8.370;2023-05-10T05:03:35;6.40;;;4.00;;
31990;SDS011;18508;49.386;8.370;2023-05-10T05:06:04;6.13;;;3.88;;
31990;SDS011;18508;49.386;8.370;2023-05-10T05:08:32;10.07;;;4.22;;
31990;SDS011;18508;49.386;8.370;2023-05-10T05:11:02;6.63;;;4.15;;
31990;SDS011;18508;49.386;8.370;2023-05-10T05:13:30;8.85;;;4.60;;
31990;SDS011;18508;49.386;8.370;2023-05-10T05:16:00;6.93;;;4.75;;
31990;SDS011;18508;49.386;8.370;2023-05-10T05:18:29;7.57;;;4.25;;
31990;SDS011;18508;49.386;8.370;2023-05-10T05:20:59;6.28;;;4.20;;
31990;SDS011;18508;49.386;8.370;2023-05-10T05:23:27;6.80;;;4.57;;
31990;SDS011;18508;49.386;8.370;2023-05-10T05:25:56;7.90;;;5.32;;
31990;SDS011;18508;49.386;8.370;2023-05-10T05:28:25;8.93;;;5.10;;
31990;SDS011;18508;49.386;8.370;2023-05-10T05:30:54;8.55;;;4.95;;
31990;SDS011;18508;49.386;8.370;2023-05-10T05:33:23;9.05;;;5.57;;
31990;SDS011;18508;49.386;8.370;2023-05-10T05:35:51;8.20;;;5.50;;
31990;SDS011;18508;49.386;8.370;2023-05-10T05:38:21;7.20;;;4.93;;
31990;SDS011;18508;49.386;8.370;2023-05-10T05:40:49;8.68;;;5.03;;
31990;SDS011;18508;49.386;8.370;2023-05-10T05:43:17;6.20;;;4.72;;
31990;SDS011;18508;49.386;8.370;2023-05-10T05:45:45;7.90;;;6.22;;
31990;SDS011;18508;49.386;8.370;2023-05-10T05:48:14;10.63;;;7.00;;
31990;SDS011;18508;49.386;8.370;2023-05-10T05:50:42;8.13;;;5.47;;
31990;SDS011;18508;49.386;8.370;2023-05-10T05:53:10;8.13;;;5.90;;
31990;SDS011;18508;49.386;8.370;2023-05-10T05:55:40;7.00;;;5.45;;
31990;SDS011;18508;49.386;8.370;2023-05-10T05:58:08;10.98;;;5.72;;
31990;SDS011;18508;49.386;8.370;2023-05-10T06:00:36;9.75;;;5.93;;
31990;SDS011;18508;49.386;8.370;2023-05-10T06:03:04;7.80;;;5.68;;
31990;SDS011;18508;49.386;8.370;2023-05-10T06:05:33;8.65;;;5.25;;
31990;SDS011;18508;49.386;8.370;2023-05-10T06:08:01;5.07;;;4.10;;
31990;SDS011;18508;49.386;8.370;2023-05-10T06:10:30;6.78;;;4.28;;
31990;SDS011;18508;49.386;8.370;2023-05-10T06:12:59;9.88;;;3.95;;
31990;SDS011;18508;49.386;8.370;2023-05-10T06:15:27;6.00;;;3.50;;
31990;SDS011;18508;49.386;8.370;2023-05-10T06:17:56;6.10;;;3.30;;
31990;SDS011;18508;49.386;8.370;2023-05-10T06:20:24;4.65;;;3.25;;
31990;SDS011;18508;49.386;8.370;2023-05-10T06:22:53;4.00;;;3.17;;
31990;SDS011;18508;49.386;8.370;2023-05-10T06:25:21;4.90;;;3.22;;
31990;SDS011;18508;49.386;8.370;2023-05-10T06:27:50;6.65;;;3.63;;
31990;SDS011;18508;49.386;8.370;2023-05-10T06:30:25;4.47;;;3.35;;
31990;SDS011;18508;49.386;8.370;2023-05-10T06:32:55;4.45;;;3.30;;
31990;SDS011;18508;49.386;8.370;2023-05-10T06:35:24;4.90;;;2.90;;
31990;SDS011;18508;49.386;8.370;2023-05-10T06:37:53;5.13;;;3.28;;
31990;SDS011;18508;49.386;8.370;2023-05-10T06:40:21;5.68;;;3.20;;
31990;SDS011;18508;49.386;8.370;2023-05-10T06:42:49;5.28;;;3.10;;
31990;SDS011;18508;49.386;8.370;2023-05-10T06:45:17;4.80;;;3.10;;
31990;SDS011;18508;49.386;8.370;2023-05-10T06:47:47;4.45;;;3.28;;
31990;SDS011;18508;49.386;8.370;2023-05-10T06:50:16;4.10;;;3.25;;
31990;SDS011;18508;49.386;8.370;2023-05-10T06:52:44;4.25;;;3.15;;
31990;SDS011;18508;49.386;8.370;2023-05-10T06:55:12;8.02;;;4.65;;
31990;SDS011;18508;49.386;8.370;2023-05-10T06:57:40;3.95;;;2.90;;
31990;SDS011;18508;49.386;8.370;2023-05-10T07:00:08;5.85;;;3.28;;
31990;SDS011;18508;49.386;8.370;2023-05-10T07:02:37;3.85;;;2.97;;
31990;SDS011;18508;49.386;8.370;2023-05-10T07:05:07;5.10;;;3.45;;
31990;SDS011;18508;49.386;8.370;2023-05-10T07:07:35;5.78;;;3.72;;
31990;SDS011;18508;49.386;8.370;2023-05-10T07:10:04;4.93;;;3.70;;
31990;SDS011;18508;49.386;8.370;2023-05-10T07:12:33;6.97;;;3.60;;
31990;SDS011;18508;49.386;8.370;2023-05-10T07:15:01;4.85;;;3.60;;
31990;SDS011;18508;49.386;8.370;2023-05-10T07:17:30;6.65;;;3.17;;
31990;SDS011;18508;49.386;8.370;2023-05-10T07:19:59;6.97;;;2.97;;
31990;SDS011;18508;49.386;8.370;2023-05-10T07:22:29;6.13;;;3.25;;
31990;SDS011;18508;49.386;8.370;2023-05-10T07:24:57;3.88;;;2.80;;
31990;SDS011;18508;49.386;8.370;2023-05-10T07:27:25;4.22;;;3.00;;
31990;SDS011;18508;49.386;8.370;2023-05-10T07:29:54;4.03;;;2.40;;
31990;SDS011;18508;49.386;8.370;2023-05-10T07:32:22;3.38;;;2.17;;
31990;SDS011;18508;49.386;8.370;2023-05-10T07:34:51;3.53;;;2.33;;
31990;SDS011;18508;49.386;8.370;2023-05-10T07:37:21;3.85;;;2.30;;
31990;SDS011;18508;49.386;8.370;2023-05-10T07:39:51;2.80;;;2.20;;
31990;SDS011;18508;49.386;8.370;2023-05-10T07:42:19;3.45;;;2.10;;
31990;SDS011;18508;49.386;8.370;2023-05-10T07:44:47;2.78;;;1.90;;
31990;SDS011;18508;49.386;8.370;2023-05-10T07:47:15;3.08;;;1.80;;
31990;SDS011;18508;49.386;8.370;2023-05-10T07:49:43;2.53;;;1.80;;
31990;SDS011;18508;49.386;8.370;2023-05-10T07:52:11;3.72;;;1.40;;
31990;SDS011;18508;49.386;8.370;2023-05-10T07:54:40;2.90;;;1.08;;
31990;SDS011;18508;49.386;8.370;2023-05-10T07:57:09;2.50;;;1.40;;
31990;SDS011;18508;49.386;8.370;2023-05-10T07:59:37;2.50;;;1.27;;
31990;SDS011;18508;49.386;8.370;2023-05-10T08:02:06;2.40;;;1.10;;
31990;SDS011;18508;49.386;8.370;2023-05-10T08:04:34;2.55;;;1.20;;
31990;SDS011;18508;49.386;8.370;2023-05-10T08:07:02;3.38;;;1.00;;
31990;SDS011;18508;49.386;8.370;2023-05-10T08:09:30;1.67;;;1.10;;
31990;SDS011;18508;49.386;8.370;2023-05-10T08:11:59;1.75;;;0.88;;
31990;SDS011;18508;49.386;8.370;2023-05-10T08:14:29;2.00;;;1.13;;
31990;SDS011;18508;49.386;8.370;2023-05-10T08:16:57;3.85;;;1.30;;
31990;SDS011;18508;49.386;8.370;2023-05-10T08:19:25;2.47;;;1.30;;
31990;SDS011;18508;49.386;8.370;2023-05-10T08:21:53;1.98;;;1.30;;
31990;SDS011;18508;49.386;8.370;2023-05-10T08:24:22;1.58;;;1.02;;
31990;SDS011;18508;49.386;8.370;2023-05-10T08:26:52;5.75;;;1.35;;
31990;SDS011;18508;49.386;8.370;2023-05-10T08:29:20;2.30;;;1.60;;
31990;SDS011;18508;49.386;8.370;2023-05-10T08:31:49;2.60;;;1.50;;
31990;SDS011;18508;49.386;8.370;2023-05-10T08:34:17;2.72;;;1.50;;
31990;SDS011;18508;49.386;8.370;2023-05-10T08:36:46;2.08;;;1.30;;
31990;SDS011;18508;49.386;8.370;2023-05-10T08:39:14;2.00;;;1.20;;
31990;SDS011;18508;49.386;8.370;2023-05-10T08:41:56;1.88;;;1.38;;
31990;SDS011;18508;49.386;8.370;2023-05-10T08:44:29;2.20;;;1.50;;
31990;SDS011;18508;49.386;8.370;2023-05-10T08:47:01;2.03;;;1.42;;
31990;SDS011;18508;49.386;8.370;2023-05-10T08:52:02;2.25;;;1.40;;
31990;SDS011;18508;49.386;8.370;2023-05-10T08:54:32;2.15;;;1.15;;
31990;SDS011;18508;49.386;8.370;2023-05-10T08:57:01;1.80;;;1.20;;
31990;SDS011;18508;49.386;8.370;2023-05-10T08:59:30;2.50;;;1.20;;
31990;SDS011;18508;49.386;8.370;2023-05-10T09:02:00;2.58;;;1.10;;
31990;SDS011;18508;49.386;8.370;2023-05-10T09:04:31;3.83;;;1.10;;
31990;SDS011;18508;49.386;8.370;2023-05-10T09:07:00;2.10;;;1.33;;
31990;SDS011;18508;49.386;8.370;2023-05-10T09:09:29;1.77;;;1.00;;
31990;SDS011;18508;49.386;8.370;2023-05-10T09:11:58;2.42;;;1.38;;
31990;SDS011;18508;49.386;8.370;2023-05-10T09:14:26;2.97;;;1.10;;
31990;SDS011;18508;49.386;8.370;2023-05-10T09:16:54;1.90;;;1.05;;
31990;SDS011;18508;49.386;8.370;2023-05-10T09:19:27;2.00;;;1.10;;
31990;SDS011;18508;49.386;8.370;2023-05-10T09:21:55;1.73;;;1.00;;
31990;SDS011;18508;49.386;8.370;2023-05-10T09:24:25;1.58;;;0.93;;
31990;SDS011;18508;49.386;8.370;2023-05-10T09:26:54;3.05;;;1.45;;
31990;SDS011;18508;49.386;8.370;2023-05-10T09:29:24;11.00;;;1.75;;
31990;SDS011;18508;49.386;8.370;2023-05-10T09:31:53;2.72;;;1.13;;
31990;SDS011;18508;49.386;8.370;2023-05-10T09:34:29;2.28;;;1.10;;
31990;SDS011;18508;49.386;8.370;2023-05-10T09:37:01;2.60;;;1.10;;
31990;SDS011;18508;49.386;8.370;2023-05-10T09:39:31;2.50;;;1.15;;
31990;SDS011;18508;49.386;8.370;2023-05-10T09:42:01;5.57;;;1.30;;
31990;SDS011;18508;49.386;8.370;2023-05-10T09:44:31;2.28;;;0.73;;
31990;SDS011;18508;49.386;8.370;2023-05-10T09:47:00;1.95;;;0.80;;
31990;SDS011;18508;49.386;8.370;2023-05-10T09:49:28;2.53;;;1.00;;
31990;SDS011;18508;49.386;8.370;2023-05-10T09:52:01;2.42;;;0.80;;
31990;SDS011;18508;49.386;8.370;2023-05-10T09:54:30;2.70;;;0.70;;
31990;SDS011;18508;49.386;8.370;2023-05-10T09:56:59;1.65;;;0.70;;
31990;SDS011;18508;49.386;8.370;2023-05-10T09:59:32;5.28;;;0.85;;
31990;SDS011;18508;49.386;8.370;2023-05-10T10:02:02;2.80;;;0.70;;
31990;SDS011;18508;49.386;8.370;2023-05-10T10:04:31;3.30;;;0.90;;
31990;SDS011;18508;49.386;8.370;2023-05-10T10:07:01;2.60;;;0.90;;
31990;SDS011;18508;49.386;8.370;2023-05-10T10:09:30;1.80;;;1.02;;
31990;SDS011;18508;49.386;8.370;2023-05-10T10:12:00;3.78;;;1.50;;
31990;SDS011;18508;49.386;8.370;2023-05-10T10:14:28;2.50;;;1.00;;
31990;SDS011;18508;49.386;8.370;2023-05-10T10:16:57;1.55;;;0.93;;
31990;SDS011;18508;49.386;8.370;2023-05-10T10:19:31;2.55;;;0.80;;
31990;SDS011;18508;49.386;8.370;2023-05-10T10:22:02;2.00;;;0.90;;
31990;SDS011;18508;49.386;8.370;2023-05-10T10:24:30;2.20;;;0.80;;
31990;SDS011;18508;49.386;8.370;2023-05-10T10:26:59;1.17;;;0.75;;
31990;SDS011;18508;49.386;8.370;2023-05-10T10:29:36;1.40;;;0.77;;
31990;SDS011;18508;49.386;8.370;2023-05-10T10:32:09;1.98;;;0.60;;
31990;SDS011;18508;49.386;8.370;2023-05-10T10:34:47;2.90;;;0.75;;
31990;SDS011;18508;49.386;8.370;2023-05-10T10:37:17;1.15;;;0.70;;
31990;SDS011;18508;49.386;8.370;2023-05-10T10:39:45;1.10;;;0.65;;
31990;SDS011;18508;49.386;8.370;2023-05-10T10:45:16;3.15;;;0.77;;
31990;SDS011;18508;49.386;8.370;2023-05-10T10:47:46;2.05;;;0.90;;
31990;SDS011;18508;49.386;8.370;2023-05-10T10:50:16;0.90;;;0.50;;
31990;SDS011;18508;49.386;8.370;2023-05-10T10:52:46;2.17;;;0.70;;
31990;SDS011;18508;49.386;8.370;2023-05-10T10:55:16;2.33;;;0.70;;
31990;SDS011;18508;49.386;8.370;2023-05-10T10:57:49;1.13;;;0.60;;
31990;SDS011;18508;49.386;8.370;2023-05-10T11:00:25;1.90;;;0.68;;
31990;SDS011;18508;49.386;8.370;2023-05-10T11:02:56;3.15;;;1.00;;
31990;SDS011;18508;49.386;8.370;2023-05-10T11:08:12;1.63;;;0.68;;
31990;SDS011;18508;49.386;8.370;2023-05-10T11:10:49;1.63;;;0.80;;
31990;SDS011;18508;49.386;8.370;2023-05-10T11:13:39;2.75;;;0.80;;
31990;SDS011;18508;49.386;8.370;2023-05-10T11:16:12;1.98;;;0.82;;
31990;SDS011;18508;49.386;8.370;2023-05-10T11:18:59;2.25;;;0.93;;
31990;SDS011;18508;49.386;8.370;2023-05-10T11:21:29;1.75;;;0.70;;
31990;SDS011;18508;49.386;8.370;2023-05-10T11:24:00;1.40;;;0.75;;
31990;SDS011;18508;49.386;8.370;2023-05-10T11:26:33;1.60;;;0.88;;
31990;SDS011;18508;49.386;8.370;2023-05-10T11:29:02;2.95;;;0.70;;
31990;SDS011;18508;49.386;8.370;2023-05-10T11:31:31;3.13;;;0.95;;
31990;SDS011;18508;49.386;8.370;2023-05-10T11:33:59;2.33;;;1.05;;
31990;SDS011;18508;49.386;8.370;2023-05-10T11:36:28;3.58;;;0.90;;
31990;SDS011;18508;49.386;8.370;2023-05-10T11:39:01;1.77;;;1.00;;
31990;SDS011;18508;49.386;8.370;2023-05-10T11:41:30;3.28;;;1.00;;
31990;SDS011;18508;49.386;8.370;2023-05-10T11:43:58;1.50;;;0.85;;
31990;SDS011;18508;49.386;8.370;2023-05-10T11:46:27;2.40;;;0.77;;
31990;SDS011;18508;49.386;8.370;2023-05-10T11:48:57;2.33;;;0.73;;
31990;SDS011;18508;49.386;8.370;2023-05-10T11:51:27;4.97;;;0.87;;
31990;SDS011;18508;49.386;8.370;2023-05-10T11:53:55;3.20;;;1.20;;
31990;SDS011;18508;49.386;8.370;2023-05-10T11:56:27;3.30;;;0.90;;
31990;SDS011;18508;49.386;8.370;2023-05-10T11:58:56;3.67;;;1.20;;
31990;SDS011;18508;49.386;8.370;2023-05-10T12:01:26;12.10;;;2.17;;
31990;SDS011;18508;49.386;8.370;2023-05-10T12:03:55;4.82;;;1.40;;
31990;SDS011;18508;49.386;8.370;2023-05-10T12:06:26;2.95;;;0.93;;
31990;SDS011;18508;49.386;8.370;2023-05-10T12:08:57;4.45;;;0.98;;
31990;SDS011;18508;49.386;8.370;2023-05-10T12:11:28;2.88;;;0.88;;
31990;SDS011;18508;49.386;8.370;2023-05-10T12:13:57;3.53;;;1.20;;
31990;SDS011;18508;49.386;8.370;2023-05-10T12:16:26;3.83;;;1.10;;
31990;SDS011;18508;49.386;8.370;2023-05-10T12:18:58;1.83;;;0.90;;
31990;SDS011;18508;49.386;8.370;2023-05-10T12:21:27;6.80;;;0.95;;
31990;SDS011;18508;49.386;8.370;2023-05-10T12:23:59;3.72;;;1.20;;
31990;SDS011;18508;49.386;8.370;2023-05-10T12:26:30;6.85;;;1.10;;
31990;SDS011;18508;49.386;8.370;2023-05-10T12:29:11;3.05;;;0.88;;
31990;SDS011;18508;49.386;8.370;2023-05-10T12:31:50;5.07;;;0.90;;
31990;SDS011;18508;49.386;8.370;2023-05-10T12:34:22;1.85;;;0.73;;
31990;SDS011;18508;49.386;8.370;2023-05-10T12:36:52;1.67;;;0.65;;
31990;SDS011;18508;49.386;8.370;2023-05-10T12:39:20;2.08;;;0.73;;
31990;SDS011;18508;49.386;8.370;2023-05-10T12:41:50;4.80;;;0.90;;
31990;SDS011;18508;49.386;8.370;2023-05-10T12:44:18;2.72;;;0.88;;
31990;SDS011;18508;49.386;8.370;2023-05-10T12:46:46;2.13;;;0.70;;
31990;SDS011;18508;49.386;8.370;2023-05-10T12:49:14;1.73;;;0.70;;
31990;SDS011;18508;49.386;8.370;2023-05-10T12:51:43;1.35;;;0.60;;
31990;SDS011;18508;49.386;8.370;2023-05-10T12:54:11;4.03;;;0.77;;
31990;SDS011;18508;49.386;8.370;2023-05-10T12:56:39;3.58;;;0.57;;
31990;SDS011;18508;49.386;8.370;2023-05-10T12:59:10;4.32;;;1.15;;
31990;SDS011;18508;49.386;8.370;2023-05-10T13:01:38;2.88;;;0.60;;
31990;SDS011;18508;49.386;8.370;2023-05-10T13:04:09;0.98;;;0.55;;
31990;SDS011;18508;49.386;8.370;2023-05-10T13:06:37;3.80;;;0.70;;
31990;SDS011;18508;49.386;8.370;2023-05-10T13:09:05;1.83;;;0.63;;
31990;SDS011;18508;49.386;8.370;2023-05-10T13:11:33;2.15;;;0.65;;
31990;SDS011;18508;49.386;8.370;2023-05-10T13:14:01;1.58;;;0.50;;
31990;SDS011;18508;49.386;8.370;2023-05-10T13:16:32;0.90;;;0.50;;
31990;SDS011;18508;49.386;8.370;2023-05-10T13:19:00;1.23;;;0.40;;
31990;SDS011;18508;49.386;8.370;2023-05-10T13:21:29;1.30;;;0.47;;
31990;SDS011;18508;49.386;8.370;2023-05-10T13:23:57;4.45;;;0.52;;
31990;SDS011;18508;49.386;8.370;2023-05-10T13:26:26;1.83;;;0.60;;
31990;SDS011;18508;49.386;8.370;2023-05-10T13:28:54;3.95;;;1.02;;
31990;SDS011;18508;49.386;8.370;2023-05-10T13:31:23;2.97;;;0.60;;
31990;SDS011;18508;49.386;8.370;2023-05-10T13:33:52;1.55;;;0.85;;
31990;SDS011;18508;49.386;8.370;2023-05-10T13:36:22;2.67;;;0.60;;
31990;SDS011;18508;49.386;8.370;2023-05-10T13:38:50;1.13;;;0.50;;
31990;SDS011;18508;49.386;8.370;2023-05-10T13:41:18;2.30;;;0.63;;
31990;SDS011;18508;49.386;8.370;2023-05-10T13:43:46;2.08;;;0.70;;
31990;SDS011;18508;49.386;8.370;2023-05-10T13:46:16;1.40;;;0.60;;
31990;SDS011;18508;49.386;8.370;2023-05-10T13:48:44;2.95;;;0.68;;
31990;SDS011;18508;49.386;8.370;2023-05-10T13:51:13;1.75;;;0.40;;
31990;SDS011;18508;49.386;8.370;2023-05-10T13:53:41;2.83;;;0.80;;
31990;SDS011;18508;49.386;8.370;2023-05-10T13:56:09;1.92;;;0.50;;
31990;SDS011;18508;49.386;8.370;2023-05-10T13:58:37;2.28;;;0.52;;
31990;SDS011;18508;49.386;8.370;2023-05-10T14:01:05;2.28;;;0.60;;
31990;SDS011;18508;49.386;8.370;2023-05-10T14:03:33;2.38;;;0.32;;
31990;SDS011;18508;49.386;8.370;2023-05-10T14:06:01;2.58;;;0.50;;
31990;SDS011;18508;49.386;8.370;2023-05-10T14:08:31;2.38;;;0.50;;
31990;SDS011;18508;49.386;8.370;2023-05-10T14:10:59;0.68;;;0.40;;
31990;SDS011;18508;49.386;8.370;2023-05-10T14:13:27;1.05;;;0.50;;
31990;SDS011;18508;49.386;8.370;2023-05-10T14:15:55;2.50;;;0.50;;
31990;SDS011;18508;49.386;8.370;2023-05-10T14:18:26;1.02;;;0.40;;
31990;SDS011;18508;49.386;8.370;2023-05-10T14:20:55;1.88;;;0.40;;
31990;SDS011;18508;49.386;8.370;2023-05-10T14:23:23;4.03;;;0.73;;
31990;SDS011;18508;49.386;8.370;2023-05-10T14:25:54;0.90;;;0.50;;
31990;SDS011;18508;49.386;8.370;2023-05-10T14:28:22;2.10;;;0.85;;
31990;SDS011;18508;49.386;8.370;2023-05-10T14:30:51;3.05;;;0.73;;
31990;SDS011;18508;49.386;8.370;2023-05-10T14:33:19;2.17;;;0.32;;
31990;SDS011;18508;49.386;8.370;2023-05-10T14:35:48;0.38;;;0.30;;
31990;SDS011;18508;49.386;8.370;2023-05-10T14:38:16;1.38;;;0.40;;
31990;SDS011;18508;49.386;8.370;2023-05-10T14:40:44;2.05;;;0.43;;
31990;SDS011;18508;49.386;8.370;2023-05-10T14:43:13;1.02;;;0.60;;
31990;SDS011;18508;49.386;8.370;2023-05-10T14:45:41;0.88;;;0.30;;
31990;SDS011;18508;49.386;8.370;2023-05-10T14:48:09;17.95;;;3.47;;
31990;SDS011;18508;49.386;8.370;2023-05-10T14:50:41;1.33;;;0.50;;
31990;SDS011;18508;49.386;8.370;2023-05-10T14:53:10;1.38;;;0.60;;
31990;SDS011;18508;49.386;8.370;2023-05-10T14:55:38;2.45;;;0.80;;
31990;SDS011;18508;49.386;8.370;2023-05-10T14:58:07;1.10;;;0.60;;
31990;SDS011;18508;49.386;8.370;2023-05-10T15:00:36;1.33;;;0.43;;
31990;SDS011;18508;49.386;8.370;2023-05-10T15:03:05;0.88;;;0.40;;
31990;SDS011;18508;49.386;8.370;2023-05-10T15:05:33;2.25;;;1.25;;
31990;SDS011;18508;49.386;8.370;2023-05-10T15:08:03;2.20;;;0.45;;
31990;SDS011;18508;49.386;8.370;2023-05-10T15:10:31;0.88;;;0.30;;
31990;SDS011;18508;49.386;8.370;2023-05-10T15:13:00;2.33;;;0.90;;
31990;SDS011;18508;49.386;8.370;2023-05-10T15:15:28;1.05;;;0.52;;